Time;durP1;ratioP1;P1;durP2;ratioP2;P2;SDS_P1;SDS_P2;PMS_P1;PMS_P2;Temp;Humidity;BMP_temperature;BMP_pressure;BME280_temperature;BME280_humidity;BME280_pressure;Samples;Min_cycle;Max_cycle;Signal;HPM_P1;HPM_P2
2021/04/18 17:41:07;;;;;;;;;;;;;;;;;;5102713;27;1729;-63
2021/04/18 17:43:32;;;;;;;;;;;;;;;;;;5103456;28;830;-62
2021/04/18 17:45:59;;;;;;;;;;;;;;;;;;5085374;28;830;-63
2021/04/18 17:48:24;;;;;;;;;;;;;;;;;;5091860;28;1179;-64
2021/04/18 17:50:49;;;;;;;;;;;;;;;;;;5084257;28;1409;-63
2021/04/18 17:53:15;;;;;;;;;;;;;;;;;;5091731;28;1165;-63
2021/04/18 17:55:41;;;;;;;;;;;;;;;;;;5103712;28;909;-62
2021/04/18 17:58:06;;;;;;;;;;;;;;;;;;5096425;28;878;-61
2021/04/18 18:00:32;;;;;;;;;;;;;;;;;;5062879;28;1902;-64
2021/04/18 18:02:58;;;;;;;;;;;;;;;;;;5070885;28;1025;-62
2021/04/18 18:05:23;;;;;;;;;;;;;;;;;;5083186;28;795;-63
2021/04/18 18:07:49;;;;;;;;;;;;;;;;;;5065798;28;1287;-63
2021/04/18 18:10:15;;;;;;;;;;;;;;;;;;5083782;28;866;-64
2021/04/18 18:12:41;;;;;;;;;;;;;;;;;;5065193;28;1279;-63
2021/04/18 18:15:07;;;;;;;;;;;;;;;;;;5075682;28;1139;-63
2021/04/18 18:17:33;;;;;;;;;;;;;;;;;;5050501;28;1161;-63
2021/04/18 18:19:58;;;;;;;;;;;;;;;;;;5081962;28;1995;-61
2021/04/18 18:22:24;;;;;;;;;;;;;;;;;;5054350;28;1455;-62
2021/04/18 18:24:50;;;;;;;;;;;;;;;;;;5082761;28;1293;-62
2021/04/18 18:27:16;;;;;;;;;;;;;;;;;;5080189;28;1149;-65
2021/04/18 18:29:41;;;;;;;;;;;;;;;;;;5085284;28;1270;-64
2021/04/18 18:32:07;;;;;;;;;;;;;;;;;;5079515;28;1316;-65
2021/04/18 18:34:36;;;;;;;;;;;;;;;;;;5082274;28;1189;-66
2021/04/18 18:37:05;;;;;;;;;;;;;;;;;;5063817;28;1249;-65
2021/04/18 18:39:31;;;;;;;;;;;;;;;;;;5080694;28;1874;-66
2021/04/18 18:41:56;;;;;;;;;;;;;;;;;;5081750;28;1237;-64
2021/04/18 18:44:22;;;;;;;;;;;;;;;;;;5082261;28;1296;-62
2021/04/18 18:46:47;;;;;;;;;;;;;;;;;;5080020;28;1466;-64
2021/04/18 18:49:13;;;;;;;;;;;;;;;;;;5081054;28;1121;-64
2021/04/18 18:51:40;;;;;;;;;;;;;;;;;;5052589;28;1324;-64
2021/04/18 18:54:06;;;;;;;;;;;;;;;;;;5067993;28;1218;-64
2021/04/18 18:56:31;;;;;;;;;;;;;;;;;;5066374;28;1352;-64
2021/04/18 18:58:57;;;;;;;;;;;;;;;;;;5049152;28;1977;-64
2021/04/18 19:01:23;;;;;;;;;;;;;;;;;;5069832;28;1259;-64
2021/04/18 19:03:49;;;;;;;;;;;;;;;;;;5067391;28;1110;-63
2021/04/18 19:06:15;;;;;;;;;;;;;;;;;;5064580;28;1166;-64
2021/04/18 19:08:41;;;;;;;;;;;;;;;;;;5066001;28;1237;-65
2021/04/18 19:11:06;;;;;;;;;;;;;;;;;;5066102;28;1070;-63
2021/04/18 19:13:33;;;;;;;;;;;;;;;;;;5066570;28;1057;-64
2021/04/18 19:15:58;;;;;;;;;;;;;;;;;;5067137;28;1182;-64
2021/04/18 19:18:23;;;;;;;;;;;;;;;;;;5067904;28;815;-64
2021/04/18 19:20:49;;;;;;;;;;;;;;;;;;5068996;28;1959;-64
2021/04/18 19:23:15;;;;;;;;;;;;;;;;;;5067607;28;1143;-63
2021/04/18 19:25:40;;;;;;;;;;;;;;;;;;5067043;28;1211;-63
2021/04/18 19:28:06;;;;;;;;;;;;;;;;;;5070297;28;1039;-65
2021/04/18 19:30:33;;;;;;;;;;;;;;;;;;5067701;28;854;-64
2021/04/18 19:32:59;;;;;;;;;;;;;;;;;;5068276;28;851;-65
2021/04/18 19:35:26;;;;;;;;;;;;;;;;;;5054545;28;811;-65
2021/04/18 19:37:52;;;;;;;;;;;;;;;;;;5054094;28;1084;-64
2021/04/18 19:40:18;;;;;;;;;;;;;;;;;;5070047;28;1894;-64
2021/04/18 19:42:44;;;;;;;;;;;;;;;;;;5059667;28;1258;-63
2021/04/18 19:45:10;;;;;;;;;;;;;;;;;;5065981;28;1358;-64
2021/04/18 19:47:35;;;;;;;;;;;;;;;;;;5049571;28;1567;-63
2021/04/18 19:50:00;;;;;;;;;;;;;;;;;;5066852;28;1211;-65
2021/04/18 19:52:26;;;;;;;;;;;;;;;;;;5048562;28;1226;-64
2021/04/18 19:54:52;;;;;;;;;;;;;;;;;;5068208;28;1488;-62
2021/04/18 19:57:17;;;;;;;;;;;;;;;;;;5049564;28;1199;-62
2021/04/18 19:59:43;;;;;;;;;;;;;;;;;;5066251;28;1960;-63
2021/04/18 20:02:08;;;;;;;;;;;;;;;;;;5066048;28;1480;-62
2021/04/18 20:04:34;;;;;;;;;;;;;;;;;;5067456;28;1092;-63
2021/04/18 20:07:00;;;;;;;;;;;;;;;;;;5049002;28;1290;-64
2021/04/18 20:09:25;;;;;;;;;;;;;;;;;;5067168;28;1160;-64
2021/04/18 20:11:50;;;;;;;;;;;;;;;;;;5065611;28;1713;-63
2021/04/18 20:14:16;;;;;;;;;;;;;;;;;;5029485;28;1212;-63
2021/04/18 20:16:41;;;;;;;;;;;;;;;;;;5066841;28;1210;-63
2021/04/18 20:19:07;;;;;;;;;;;;;;;;;;5066623;28;1977;-64
2021/04/18 20:21:32;;;;;;;;;;;;;;;;;;5066099;28;827;-63
2021/04/18 20:23:58;;;;;;;;;;;;;;;;;;5066403;28;1127;-64
2021/04/18 20:26:25;;;;;;;;;;;;;;;;;;5066851;28;779;-64
2021/04/18 20:28:50;;;;;;;;;;;;;;;;;;5059148;28;815;-64
2021/04/18 20:31:15;;;;;;;;;;;;;;;;;;5046879;28;1051;-63
2021/04/18 20:33:41;;;;;;;;;;;;;;;;;;5046303;28;847;-63
2021/04/18 20:36:06;;;;;;;;;;;;;;;;;;5046503;28;890;-63
2021/04/18 20:38:33;;;;;;;;;;;;;;;;;;5046733;28;839;-63
2021/04/18 20:40:58;;;;;;;;;;;;;;;;;;5054563;28;1956;-63
2021/04/18 20:43:25;;;;;;;;;;;;;;;;;;5062364;28;1730;-63
2021/04/18 20:45:51;;;;;;;;;;;;;;;;;;5062323;28;1836;-64
2021/04/18 20:48:16;;;;;;;;;;;;;;;;;;5063343;28;1711;-63
2021/04/18 20:50:41;;;;;;;;;;;;;;;;;;5060910;28;985;-64
2021/04/18 20:53:07;;;;;;;;;;;;;;;;;;5067390;28;1683;-64
2021/04/18 20:55:32;;;;;;;;;;;;;;;;;;5060516;28;1782;-63
2021/04/18 20:57:58;;;;;;;;;;;;;;;;;;5062117;28;1855;-64
2021/04/18 21:00:23;;;;;;;;;;;;;;;;;;5042687;28;1902;-64
2021/04/18 21:02:49;;;;;;;;;;;;;;;;;;5059880;28;1196;-62
2021/04/18 21:05:14;;;;;;;;;;;;;;;;;;5060429;28;802;-63
2021/04/18 21:07:40;;;;;;;;;;;;;;;;;;5044034;28;1329;-63
2021/04/18 21:10:06;;;;;;;;;;;;;;;;;;5045570;28;815;-62
2021/04/18 21:12:32;;;;;;;;;;;;;;;;;;5045872;28;1275;-62
2021/04/18 21:14:57;;;;;;;;;;;;;;;;;;5046174;28;819;-62
2021/04/18 21:17:22;;;;;;;;;;;;;;;;;;5048846;28;1087;-63
2021/04/18 21:19:48;;;;;;;;;;;;;;;;;;5069409;28;1979;-62
2021/04/18 21:22:13;;;;;;;;;;;;;;;;;;5058056;28;901;-63
2021/04/18 21:24:39;;;;;;;;;;;;;;;;;;5046529;28;862;-62
2021/04/18 21:27:04;;;;;;;;;;;;;;;;;;5045892;28;894;-62
2021/04/18 21:29:30;;;;;;;;;;;;;;;;;;5027510;28;950;-63
2021/04/18 21:31:55;;;;;;;;;;;;;;;;;;5027663;28;1371;-62
2021/04/18 21:34:20;;;;;;;;;;;;;;;;;;5044991;28;1314;-62
2021/04/18 21:36:47;;;;;;;;;;;;;;;;;;5028263;28;948;-62
2021/04/18 21:39:12;;;;;;;;;;;;;;;;;;5044888;28;1893;-62
2021/04/18 21:41:38;;;;;;;;;;;;;;;;;;5045749;28;823;-62
2021/04/18 21:44:08;;;;;;;;;;;;;;;;;;5045706;28;854;-62
2021/04/18 21:46:33;;;;;;;;;;;;;;;;;;5051503;28;1862;-62
2021/04/18 21:48:59;;;;;;;;;;;;;;;;;;5065982;28;1075;-62
2021/04/18 21:51:24;;;;;;;;;;;;;;;;;;5082950;28;1233;-62
2021/04/18 21:53:50;;;;;;;;;;;;;;;;;;5066690;28;1069;-63
2021/04/18 21:56:16;;;;;;;;;;;;;;;;;;5066307;28;799;-62
2021/04/18 21:58:41;;;;;;;;;;;;;;;;;;5065742;28;1898;-62
2021/04/18 22:01:07;;;;;;;;;;;;;;;;;;5065024;28;835;-63
2021/04/18 22:03:32;;;;;;;;;;;;;;;;;;5065821;28;794;-62
2021/04/18 22:05:58;;;;;;;;;;;;;;;;;;5065771;28;1089;-63
2021/04/18 22:08:23;;;;;;;;;;;;;;;;;;5065950;28;889;-63
2021/04/18 22:10:49;;;;;;;;;;;;;;;;;;5082280;28;914;-62
2021/04/18 22:13:14;;;;;;;;;;;;;;;;;;5065832;28;827;-62
2021/04/18 22:15:39;;;;;;;;;;;;;;;;;;5047347;28;1252;-62
2021/04/18 22:18:05;;;;;;;;;;;;;;;;;;5065477;28;804;-62
2021/04/18 22:20:30;;;;;;;;;;;;;;;;;;5065744;28;1957;-62
2021/04/18 22:22:56;;;;;;;;;;;;;;;;;;5066387;28;846;-62
2021/04/18 22:25:22;;;;;;;;;;;;;;;;;;5066470;28;815;-62
2021/04/18 22:27:47;;;;;;;;;;;;;;;;;;5069963;28;893;-62
2021/04/18 22:30:13;;;;;;;;;;;;;;;;;;5051999;28;1207;-62
2021/04/18 22:32:38;;;;;;;;;;;;;;;;;;5051675;28;1376;-62
2021/04/18 22:35:04;;;;;;;;;;;;;;;;;;5051600;28;1283;-62
2021/04/18 22:37:29;;;;;;;;;;;;;;;;;;5051290;28;1172;-62
2021/04/18 22:39:55;;;;;;;;;;;;;;;;;;5062188;28;2376;-62
2021/04/18 22:42:20;;;;;;;;;;;;;;;;;;5063943;28;811;-62
2021/04/18 22:44:46;;;;;;;;;;;;;;;;;;5069382;28;795;-62
2021/04/18 22:47:11;;;;;;;;;;;;;;;;;;5069211;28;807;-62
2021/04/18 22:49:36;;;;;;;;;;;;;;;;;;5068956;28;791;-62
2021/04/18 22:52:02;;;;;;;;;;;;;;;;;;5070236;28;902;-62
2021/04/18 22:54:28;;;;;;;;;;;;;;;;;;5086881;28;1197;-62
2021/04/18 22:56:53;;;;;;;;;;;;;;;;;;5089357;28;834;-63
2021/04/18 22:59:19;;;;;;;;;;;;;;;;;;5089844;28;1981;-62
2021/04/18 23:01:44;;;;;;;;;;;;;;;;;;5088575;28;869;-62
2021/04/18 23:04:09;;;;;;;;;;;;;;;;;;5089632;28;874;-62
2021/04/18 23:06:35;;;;;;;;;;;;;;;;;;5089158;28;822;-62
2021/04/18 23:09:00;;;;;;;;;;;;;;;;;;5088914;28;798;-62
2021/04/18 23:11:26;;;;;;;;;;;;;;;;;;5089005;28;861;-62
2021/04/18 23:13:51;;;;;;;;;;;;;;;;;;5089764;28;795;-62
2021/04/18 23:16:17;;;;;;;;;;;;;;;;;;5089434;28;721;-62
2021/04/18 23:18:42;;;;;;;;;;;;;;;;;;5088571;28;1966;-62
2021/04/18 23:21:08;;;;;;;;;;;;;;;;;;5088931;28;798;-62
2021/04/18 23:23:33;;;;;;;;;;;;;;;;;;5088557;28;850;-62
2021/04/18 23:25:58;;;;;;;;;;;;;;;;;;5088569;28;807;-62
2021/04/18 23:28:24;;;;;;;;;;;;;;;;;;5084986;28;1031;-62
2021/04/18 23:30:49;;;;;;;;;;;;;;;;;;5089002;28;858;-62
2021/04/18 23:33:14;;;;;;;;;;;;;;;;;;5088524;28;842;-62
2021/04/18 23:35:40;;;;;;;;;;;;;;;;;;5070658;28;930;-62
2021/04/18 23:38:05;;;;;;;;;;;;;;;;;;5088643;28;929;-61
2021/04/18 23:40:31;;;;;;;;;;;;;;;;;;5088511;28;1897;-62
2021/04/18 23:42:56;;;;;;;;;;;;;;;;;;5088579;28;882;-63
2021/04/18 23:45:22;;;;;;;;;;;;;;;;;;5070764;28;1319;-64
2021/04/18 23:47:48;;;;;;;;;;;;;;;;;;5070263;28;1174;-62
2021/04/18 23:50:14;;;;;;;;;;;;;;;;;;5070977;28;878;-62
2021/04/18 23:52:39;;;;;;;;;;;;;;;;;;5086449;28;1174;-62
2021/04/18 23:55:05;;;;;;;;;;;;;;;;;;5068030;28;834;-62
2021/04/18 23:57:30;;;;;;;;;;;;;;;;;;5068142;28;882;-62
2021/04/18 23:59:56;;;;;;;;;;;;;;;;;;5067958;28;1901;-62
